createdAt,value
2023-01-08T00:00:11.540Z,98106.98
2023-01-08T00:03:02.396Z,98100.21
2023-01-08T00:05:30.286Z,98101.17
2023-01-08T00:07:58.029Z,98098.66
2023-01-08T00:10:25.794Z,98097.39
2023-01-08T00:12:55.202Z,98093.63
2023-01-08T00:15:23.050Z,98090.17
2023-01-08T00:17:50.835Z,98089.96
2023-01-08T00:20:18.751Z,98093.38
2023-01-08T00:22:48.551Z,98091.27
2023-01-08T00:25:18.649Z,98095.32
2023-01-08T00:27:46.808Z,98091.47
2023-01-08T00:30:14.776Z,98089.60
2023-01-08T00:32:42.696Z,98088.91
2023-01-08T00:35:10.647Z,98090.79
2023-01-08T00:37:38.565Z,98093.13
2023-01-08T00:40:06.931Z,98097.35
2023-01-08T00:42:35.067Z,98100.55
2023-01-08T00:45:04.200Z,98102.00
2023-01-08T00:47:32.001Z,98104.34
2023-01-08T00:49:59.882Z,98109.19
2023-01-08T00:52:27.947Z,98109.86
2023-01-08T00:54:55.756Z,98113.73
2023-01-08T00:57:23.613Z,98111.44
2023-01-08T00:59:51.430Z,98111.86
2023-01-08T01:02:19.318Z,98113.88
2023-01-08T01:04:47.134Z,98110.98
2023-01-08T01:07:14.998Z,98108.91
2023-01-08T01:09:42.872Z,98108.64
2023-01-08T01:12:10.733Z,98113.09
2023-01-08T01:14:38.777Z,98113.67
2023-01-08T01:17:06.556Z,98111.61
2023-01-08T01:19:34.329Z,98113.77
2023-01-08T01:22:02.170Z,98114.93
2023-01-08T01:24:30.040Z,98111.52
2023-01-08T01:26:57.925Z,98109.48
2023-01-08T01:29:26.353Z,98104.09
2023-01-08T01:31:58.236Z,98104.73
2023-01-08T01:34:26.048Z,98102.23
2023-01-08T01:36:53.906Z,98098.38
2023-01-08T01:39:21.854Z,98093.35
2023-01-08T01:41:49.724Z,98093.11
2023-01-08T01:44:34.313Z,98088.27
2023-01-08T01:47:25.352Z,98081.77
2023-01-08T01:49:57.054Z,98082.45
2023-01-08T01:52:25.681Z,98086.09
2023-01-08T01:54:54.162Z,98079.74
2023-01-08T01:57:22.183Z,98077.18
2023-01-08T01:59:50.032Z,98072.98
2023-01-08T02:02:18.066Z,98069.05
2023-01-08T02:04:46.404Z,98068.80
2023-01-08T02:07:29.611Z,98066.23
2023-01-08T02:10:04.769Z,98061.99
2023-01-08T02:12:36.072Z,98059.35
2023-01-08T02:15:11.626Z,98055.25
2023-01-08T02:17:58.497Z,98054.19
2023-01-08T02:20:32.403Z,98052.92
2023-01-08T02:23:29.365Z,98053.65
2023-01-08T02:26:02.952Z,98052.13
2023-01-08T02:28:32.664Z,98052.78
2023-01-08T02:31:00.678Z,98051.14
2023-01-08T02:33:29.457Z,98050.77
2023-01-08T02:36:12.765Z,98050.00
2023-01-08T02:38:46.759Z,98048.27
2023-01-08T02:41:15.490Z,98046.08
2023-01-08T02:43:46.807Z,98042.86
2023-01-08T02:46:17.785Z,98048.25
2023-01-08T02:48:47.813Z,98048.77
2023-01-08T02:51:22.086Z,98054.23
2023-01-08T02:54:00.241Z,98053.55
2023-01-08T02:56:29.930Z,98050.72
2023-01-08T02:58:58.337Z,98049.06
2023-01-08T03:01:27.753Z,98046.67
2023-01-08T03:04:02.295Z,98046.23
2023-01-08T03:06:30.832Z,98045.17
2023-01-08T03:09:00.239Z,98045.78
2023-01-08T03:11:32.693Z,98043.55
2023-01-08T03:14:04.270Z,98043.15
2023-01-08T03:16:38.285Z,98039.92
2023-01-08T03:19:19.624Z,98038.34
2023-01-08T03:21:48.759Z,98035.48
2023-01-08T03:24:19.155Z,98033.92
2023-01-08T03:26:48.408Z,98035.06
2023-01-08T03:29:19.000Z,98034.95
2023-01-08T03:31:47.813Z,98032.74
2023-01-08T03:34:16.442Z,98034.90
2023-01-08T03:36:46.684Z,98034.60
2023-01-08T03:39:17.472Z,98033.73
2023-01-08T03:41:46.375Z,98036.05
2023-01-08T03:44:14.315Z,98033.13
2023-01-08T03:46:44.457Z,98037.54
2023-01-08T03:49:12.927Z,98034.94
2023-01-08T03:51:42.098Z,98034.92
2023-01-08T03:54:13.040Z,98037.65
2023-01-08T03:56:40.949Z,98035.23
2023-01-08T03:59:08.760Z,98035.08
2023-01-08T04:01:36.672Z,98030.83
2023-01-08T04:04:04.870Z,98032.85
2023-01-08T04:06:32.811Z,98036.71
2023-01-08T04:09:00.608Z,98038.10
2023-01-08T04:11:28.404Z,98035.77
2023-01-08T04:13:56.242Z,98029.20
2023-01-08T04:16:24.239Z,98032.08
2023-01-08T04:18:52.256Z,98034.95
2023-01-08T04:21:20.043Z,98039.34
2023-01-08T04:23:47.930Z,98030.47
2023-01-08T04:26:15.800Z,98031.20
2023-01-08T04:28:43.828Z,98031.02
2023-01-08T04:31:11.712Z,98032.48
2023-01-08T04:33:39.572Z,98034.05
2023-01-08T04:36:07.591Z,98036.08
2023-01-08T04:38:35.390Z,98030.80
2023-01-08T04:41:03.494Z,98030.39
2023-01-08T04:43:31.530Z,98026.03
2023-01-08T04:46:02.898Z,98027.88
2023-01-08T04:48:31.347Z,98026.28
2023-01-08T04:51:00.329Z,98026.37
2023-01-08T04:53:28.683Z,98026.21
2023-01-08T04:55:56.495Z,98025.29
2023-01-08T04:58:24.263Z,98019.91
2023-01-08T05:00:52.077Z,98019.48
2023-01-08T05:03:20.142Z,98015.17
2023-01-08T05:05:49.899Z,98017.21
2023-01-08T05:08:17.876Z,98015.00
2023-01-08T05:10:45.758Z,98016.45
2023-01-08T05:13:13.614Z,98016.46
2023-01-08T05:15:41.558Z,98011.69
2023-01-08T05:18:09.487Z,98012.98
2023-01-08T05:20:37.261Z,98013.55
2023-01-08T05:23:05.074Z,98012.14
2023-01-08T05:25:32.955Z,98013.94
2023-01-08T05:28:00.759Z,98011.36
2023-01-08T05:30:28.529Z,98012.21
2023-01-08T05:32:56.356Z,98010.31
2023-01-08T05:35:24.153Z,98012.64
2023-01-08T05:37:51.978Z,98012.89
2023-01-08T05:40:19.858Z,98011.42
2023-01-08T05:42:47.663Z,98013.37
2023-01-08T05:45:16.875Z,98016.14
2023-01-08T05:47:44.678Z,98012.79
2023-01-08T05:50:12.452Z,98012.08
2023-01-08T05:52:40.349Z,98011.09
2023-01-08T05:55:08.662Z,98009.27
2023-01-08T05:57:36.601Z,98007.42
2023-01-08T06:00:05.733Z,98009.71
2023-01-08T06:02:39.375Z,98013.45
2023-01-08T06:05:07.809Z,98013.40
2023-01-08T06:07:35.714Z,98016.31
2023-01-08T06:10:03.693Z,98015.40
2023-01-08T06:12:31.701Z,98019.23
2023-01-08T06:14:59.470Z,98021.30
2023-01-08T06:17:27.255Z,98014.75
2023-01-08T06:19:55.002Z,98016.61
2023-01-08T06:22:23.096Z,98020.31
2023-01-08T06:24:50.909Z,98019.39
2023-01-08T06:27:19.163Z,98026.80
2023-01-08T06:29:47.332Z,98024.52
2023-01-08T06:32:15.275Z,98023.50
2023-01-08T06:34:43.100Z,98023.85
2023-01-08T06:37:11.160Z,98023.64
2023-01-08T06:39:39.144Z,98022.88
2023-01-08T06:42:06.923Z,98022.20
2023-01-08T06:44:34.822Z,98023.59
2023-01-08T06:47:02.593Z,98026.39
2023-01-08T06:49:30.451Z,98030.85
2023-01-08T06:51:58.326Z,98028.83
2023-01-08T06:54:26.201Z,98030.36
2023-01-08T06:56:54.540Z,98032.12
2023-01-08T06:59:22.568Z,98033.33
2023-01-08T07:01:51.034Z,98035.30
2023-01-08T07:04:19.671Z,98038.96
2023-01-08T07:06:47.814Z,98042.83
2023-01-08T07:09:16.019Z,98042.86
2023-01-08T07:11:43.749Z,98044.64
2023-01-08T07:14:11.750Z,98046.57
2023-01-08T07:16:39.644Z,98048.11
2023-01-08T07:19:07.495Z,98049.03
2023-01-08T07:21:35.859Z,98046.83
2023-01-08T07:24:04.649Z,98051.55
2023-01-08T07:26:32.549Z,98050.65
2023-01-08T07:29:00.624Z,98055.71
2023-01-08T07:31:28.472Z,98058.70
2023-01-08T07:33:56.593Z,98058.04
2023-01-08T07:36:24.895Z,98059.38
2023-01-08T07:38:52.751Z,98058.83
2023-01-08T07:41:20.577Z,98057.59
2023-01-08T07:43:48.941Z,98062.33
2023-01-08T07:46:16.906Z,98058.00
2023-01-08T07:48:44.724Z,98063.61
2023-01-08T07:51:12.580Z,98057.64
2023-01-08T07:53:40.639Z,98059.60
2023-01-08T07:56:10.188Z,98064.66
2023-01-08T07:58:38.116Z,98066.40
2023-01-08T08:01:09.606Z,98071.84
2023-01-08T08:03:40.697Z,98071.23
2023-01-08T08:06:09.251Z,98071.55
2023-01-08T08:08:37.217Z,98074.55
2023-01-08T08:11:05.297Z,98075.33
2023-01-08T08:13:33.414Z,98074.73
2023-01-08T08:16:02.184Z,98074.27
2023-01-08T08:18:30.459Z,98078.81
2023-01-08T08:20:58.338Z,98081.12
2023-01-08T08:23:26.108Z,98080.58
2023-01-08T08:25:54.149Z,98085.48
2023-01-08T08:28:21.964Z,98076.91
2023-01-08T08:30:51.230Z,98081.85
2023-01-08T08:33:19.129Z,98082.79
2023-01-08T08:35:51.156Z,98079.02
2023-01-08T08:38:19.028Z,98083.92
2023-01-08T08:40:46.858Z,98081.00
2023-01-08T08:43:14.708Z,98079.23
2023-01-08T08:45:42.539Z,98078.79
2023-01-08T08:48:11.456Z,98078.65
2023-01-08T08:50:39.822Z,98081.34
2023-01-08T08:53:07.690Z,98082.11
2023-01-08T08:55:35.565Z,98082.61
2023-01-08T08:58:13.318Z,98080.27
2023-01-08T09:00:42.276Z,98070.79
2023-01-08T09:03:15.028Z,98068.61
2023-01-08T09:05:44.458Z,98071.49
2023-01-08T09:08:12.776Z,98071.30
2023-01-08T09:10:42.554Z,98066.85
2023-01-08T09:13:11.223Z,98067.12
2023-01-08T09:15:39.406Z,98068.23
2023-01-08T09:18:07.180Z,98064.27
2023-01-08T09:20:36.175Z,98055.27
2023-01-08T09:23:04.213Z,98056.48
2023-01-08T09:25:33.203Z,98057.95
2023-01-08T09:28:00.933Z,98057.58
2023-01-08T09:30:29.424Z,98053.31
2023-01-08T09:33:02.790Z,98046.82
2023-01-08T09:35:34.252Z,98042.09
2023-01-08T09:38:02.704Z,98037.30
2023-01-08T09:40:39.598Z,98036.99
2023-01-08T09:43:08.435Z,98036.91
2023-01-08T09:45:38.635Z,98030.06
2023-01-08T09:48:10.589Z,98023.03
2023-01-08T09:50:38.608Z,98023.51
2023-01-08T09:53:10.767Z,98018.29
2023-01-08T09:55:39.649Z,98019.70
2023-01-08T09:58:22.963Z,98019.02
2023-01-08T10:00:51.335Z,98018.71
2023-01-08T10:03:19.250Z,98020.06
2023-01-08T10:05:47.000Z,98016.23
2023-01-08T10:08:14.900Z,98014.34
2023-01-08T10:10:44.545Z,98012.64
2023-01-08T10:13:13.237Z,98006.13
2023-01-08T10:15:41.698Z,98004.14
2023-01-08T10:18:12.268Z,98000.08
2023-01-08T10:20:40.071Z,97992.79
2023-01-08T10:23:18.370Z,97993.37
2023-01-08T10:25:51.245Z,97992.16
2023-01-08T10:28:30.984Z,97988.21
2023-01-08T10:31:09.213Z,97986.92
2023-01-08T10:33:47.528Z,97979.71
2023-01-08T10:36:17.229Z,97970.48
2023-01-08T10:38:47.991Z,97971.45
2023-01-08T10:41:17.591Z,97965.46
2023-01-08T10:43:52.319Z,97963.30
2023-01-08T10:46:24.929Z,97965.69
2023-01-08T10:48:57.484Z,97958.98
2023-01-08T10:51:28.945Z,97958.50
2023-01-08T10:54:01.156Z,97955.61
2023-01-08T10:56:32.554Z,97955.42
2023-01-08T10:59:00.342Z,97956.09
2023-01-08T11:01:29.711Z,97956.23
2023-01-08T11:03:59.198Z,97959.37
2023-01-08T11:06:28.569Z,97954.21
2023-01-08T11:09:01.147Z,97944.89
2023-01-08T11:11:35.974Z,97946.64
2023-01-08T11:14:16.658Z,97945.03
2023-01-08T11:16:44.637Z,97945.02
2023-01-08T11:19:22.763Z,97944.61
2023-01-08T11:22:01.098Z,97943.13
2023-01-08T11:24:30.771Z,97937.15
2023-01-08T11:27:17.090Z,97937.14
2023-01-08T11:30:03.679Z,97936.02
2023-01-08T11:32:38.221Z,97934.84
2023-01-08T11:35:07.971Z,97936.80
2023-01-08T11:37:37.449Z,97926.98
2023-01-08T11:40:14.072Z,97921.99
2023-01-08T11:43:01.279Z,97921.50
2023-01-08T11:45:48.193Z,97920.95
2023-01-08T11:48:48.686Z,97923.74
2023-01-08T11:51:28.886Z,97926.00
2023-01-08T11:53:57.379Z,97923.53
2023-01-08T11:56:44.307Z,97923.58
2023-01-08T11:59:12.171Z,97923.35
2023-01-08T12:01:50.096Z,97926.83
2023-01-08T12:04:27.831Z,97925.96
2023-01-08T12:07:01.538Z,97925.23
2023-01-08T12:09:40.308Z,97916.66
2023-01-08T12:12:27.220Z,97918.31
2023-01-08T12:15:10.642Z,97923.51
2023-01-08T12:17:57.329Z,97920.29
2023-01-08T12:20:37.101Z,97917.97
2023-01-08T12:23:26.364Z,97920.98
2023-01-08T12:25:54.204Z,97920.37
2023-01-08T12:28:27.928Z,97923.04
2023-01-08T12:31:08.059Z,97922.11
2023-01-08T12:33:51.360Z,97914.55
2023-01-08T12:36:23.778Z,97907.55
2023-01-08T12:38:59.185Z,97906.04
2023-01-08T12:41:29.806Z,97907.40
2023-01-08T12:43:59.312Z,97907.98
2023-01-08T12:46:28.787Z,97910.30
2023-01-08T12:48:57.169Z,97908.59
2023-01-08T12:51:43.467Z,97911.80
2023-01-08T12:54:15.000Z,97911.31
2023-01-08T12:56:45.817Z,97909.64
2023-01-08T12:59:20.045Z,97906.77
2023-01-08T13:01:54.433Z,97908.42
2023-01-08T13:04:22.601Z,97908.05
2023-01-08T13:07:02.227Z,97906.95
2023-01-08T13:09:31.168Z,97902.75
2023-01-08T13:12:00.184Z,97894.45
2023-01-08T13:14:28.573Z,97893.73
2023-01-08T13:17:04.951Z,97895.13
2023-01-08T13:19:43.163Z,97895.35
2023-01-08T13:22:26.171Z,97896.80
2023-01-08T13:25:07.998Z,97891.80
2023-01-08T13:27:35.784Z,97888.97
2023-01-08T13:30:03.750Z,97890.70
2023-01-08T13:32:49.863Z,97888.10
2023-01-08T13:35:21.902Z,97885.80
2023-01-08T13:37:51.561Z,97886.30
2023-01-08T13:40:38.481Z,97887.15
2023-01-08T13:43:11.802Z,97885.17
2023-01-08T13:45:40.508Z,97885.02
2023-01-08T13:48:28.647Z,97888.73
2023-01-08T13:50:57.004Z,97890.09
2023-01-08T13:53:25.022Z,97885.20
2023-01-08T13:55:52.923Z,97883.24
2023-01-08T13:58:24.299Z,97883.71
2023-01-08T14:00:54.712Z,97881.77
2023-01-08T14:03:25.555Z,97880.80
2023-01-08T14:05:54.208Z,97881.87
2023-01-08T14:08:23.252Z,97882.12
2023-01-08T14:10:52.406Z,97880.45
2023-01-08T14:13:24.748Z,97883.88
2023-01-08T14:15:52.682Z,97882.17
2023-01-08T14:18:20.921Z,97878.60
2023-01-08T14:20:50.919Z,97882.64
2023-01-08T14:23:21.265Z,97881.20
2023-01-08T14:25:49.666Z,97885.16
2023-01-08T14:28:20.937Z,97888.27
2023-01-08T14:30:53.089Z,97892.69
2023-01-08T14:33:23.997Z,97893.89
2023-01-08T14:35:52.329Z,97893.35
2023-01-08T14:38:20.246Z,97893.22
2023-01-08T14:40:51.272Z,97889.22
2023-01-08T14:43:21.022Z,97884.44
2023-01-08T14:45:50.848Z,97884.08
2023-01-08T14:48:21.918Z,97884.79
2023-01-08T14:51:05.865Z,97881.84
2023-01-08T14:53:54.331Z,97889.63
2023-01-08T14:56:25.441Z,97889.98
2023-01-08T14:58:55.509Z,97891.52
2023-01-08T15:01:24.612Z,97887.96
2023-01-08T15:04:03.869Z,97889.75
2023-01-08T15:06:32.774Z,97892.48
2023-01-08T15:09:00.710Z,97891.55
2023-01-08T15:11:31.175Z,97884.73
2023-01-08T15:13:59.347Z,97883.66
2023-01-08T15:16:35.055Z,97882.55
2023-01-08T15:19:05.507Z,97884.71
2023-01-08T15:21:34.573Z,97883.63
2023-01-08T15:24:03.647Z,97885.75
2023-01-08T15:26:31.699Z,97885.00
2023-01-08T15:28:59.687Z,97881.05
2023-01-08T15:31:41.101Z,97883.69
2023-01-08T15:34:09.328Z,97879.17
2023-01-08T15:36:37.186Z,97876.67
2023-01-08T15:39:05.785Z,97871.09
2023-01-08T15:41:57.002Z,97865.37
2023-01-08T15:44:25.669Z,97867.16
2023-01-08T15:46:54.016Z,97866.88
2023-01-08T15:49:21.792Z,97868.92
2023-01-08T15:51:51.033Z,97866.95
2023-01-08T15:54:21.293Z,97862.46
2023-01-08T15:56:49.800Z,97857.29
2023-01-08T15:59:17.695Z,97854.27
2023-01-08T16:01:45.663Z,97854.98
2023-01-08T16:04:13.624Z,97854.83
2023-01-08T16:06:41.906Z,97855.69
2023-01-08T16:09:09.894Z,97857.11
2023-01-08T16:11:37.796Z,97862.10
2023-01-08T16:14:05.703Z,97858.23
2023-01-08T16:16:33.638Z,97856.90
2023-01-08T16:19:02.641Z,97860.19
2023-01-08T16:21:30.618Z,97860.08
2023-01-08T16:23:58.421Z,97857.69
2023-01-08T16:26:26.245Z,97857.41
2023-01-08T16:28:54.456Z,97855.66
2023-01-08T16:31:22.552Z,97856.97
2023-01-08T16:33:50.418Z,97855.85
2023-01-08T16:36:18.324Z,97855.77
2023-01-08T16:38:47.940Z,97854.65
2023-01-08T16:41:15.830Z,97855.30
2023-01-08T16:43:45.321Z,97851.76
2023-01-08T16:46:14.432Z,97848.67
2023-01-08T16:48:42.739Z,97847.81
2023-01-08T16:51:11.954Z,97848.19
2023-01-08T16:53:39.999Z,97846.28
2023-01-08T16:56:08.481Z,97844.35
2023-01-08T16:58:37.097Z,97841.49
2023-01-08T17:01:11.219Z,97844.13
2023-01-08T17:03:39.411Z,97844.42
2023-01-08T17:06:08.407Z,97838.23
2023-01-08T17:08:40.065Z,97836.83
2023-01-08T17:11:08.942Z,97838.23
2023-01-08T17:13:37.673Z,97835.52
2023-01-08T17:16:12.301Z,97834.94
2023-01-08T17:18:40.409Z,97839.48
2023-01-08T17:21:09.562Z,97839.65
2023-01-08T17:23:37.783Z,97840.24
2023-01-08T17:26:07.229Z,97841.75
2023-01-08T17:28:35.287Z,97838.48
2023-01-08T17:31:08.108Z,97833.51
2023-01-08T17:33:36.729Z,97836.78
2023-01-08T17:36:12.330Z,97831.27
2023-01-08T17:38:40.511Z,97834.10
2023-01-08T17:41:09.988Z,97827.80
2023-01-08T17:43:38.535Z,97826.86
2023-01-08T17:46:07.493Z,97835.99
2023-01-08T17:48:35.417Z,97836.84
2023-01-08T17:51:06.875Z,97825.21
2023-01-08T17:53:36.535Z,97829.26
2023-01-08T17:56:06.835Z,97832.52
2023-01-08T17:58:38.156Z,97828.95
2023-01-08T18:01:12.659Z,97833.59
2023-01-08T18:03:40.737Z,97831.55
2023-01-08T18:06:10.173Z,97829.27
2023-01-08T18:08:38.457Z,97826.14
2023-01-08T18:11:09.214Z,97827.30
2023-01-08T18:13:37.641Z,97822.48
2023-01-08T18:16:06.886Z,97820.95
2023-01-08T18:18:36.007Z,97817.39
2023-01-08T18:21:04.060Z,97816.98
2023-01-08T18:23:34.063Z,97813.33
2023-01-08T18:26:10.859Z,97816.63
2023-01-08T18:28:40.067Z,97816.87
2023-01-08T18:31:09.309Z,97816.83
2023-01-08T18:33:38.059Z,97814.06
2023-01-08T18:36:09.565Z,97812.39
2023-01-08T18:38:38.557Z,97820.75
2023-01-08T18:41:06.851Z,97825.05
2023-01-08T18:43:35.653Z,97815.39
2023-01-08T18:46:06.250Z,97816.91
2023-01-08T18:48:34.854Z,97813.52
2023-01-08T18:51:05.687Z,97816.55
2023-01-08T18:53:33.602Z,97810.27
2023-01-08T18:56:02.145Z,97807.37
2023-01-08T18:58:30.038Z,97806.63
2023-01-08T19:01:03.402Z,97804.74
2023-01-08T19:03:31.352Z,97801.60
2023-01-08T19:05:59.509Z,97800.32
2023-01-08T19:08:27.352Z,97802.60
2023-01-08T19:10:55.229Z,97800.58
2023-01-08T19:13:23.398Z,97794.65
2023-01-08T19:15:51.335Z,97794.98
2023-01-08T19:18:21.343Z,97794.27
2023-01-08T19:20:50.022Z,97790.76
2023-01-08T19:23:18.025Z,97787.23
2023-01-08T19:25:46.819Z,97786.38
2023-01-08T19:28:14.715Z,97784.58
2023-01-08T19:30:42.971Z,97776.33
2023-01-08T19:33:10.930Z,97778.89
2023-01-08T19:35:39.770Z,97783.30
2023-01-08T19:38:07.658Z,97775.05
2023-01-08T19:40:35.558Z,97779.04
2023-01-08T19:43:22.285Z,97776.05
2023-01-08T19:45:51.285Z,97778.15
2023-01-08T19:48:20.323Z,97779.75
2023-01-08T19:50:48.772Z,97781.60
2023-01-08T19:53:16.610Z,97780.30
2023-01-08T19:55:45.403Z,97783.06
2023-01-08T19:58:13.253Z,97787.70
2023-01-08T20:00:41.407Z,97787.63
2023-01-08T20:03:10.362Z,97780.84
2023-01-08T20:05:42.137Z,97775.63
2023-01-08T20:08:10.229Z,97774.17
2023-01-08T20:10:38.963Z,97771.64
2023-01-08T20:13:07.512Z,97768.35
2023-01-08T20:15:35.413Z,97769.50
2023-01-08T20:18:04.140Z,97766.81
2023-01-08T20:20:31.966Z,97763.11
2023-01-08T20:22:59.783Z,97763.26
2023-01-08T20:25:27.646Z,97762.52
2023-01-08T20:27:55.643Z,97766.49
2023-01-08T20:30:23.583Z,97761.85
2023-01-08T20:32:51.450Z,97752.34
2023-01-08T20:35:19.293Z,97755.86
2023-01-08T20:37:47.150Z,97748.10
2023-01-08T20:40:15.186Z,97742.99
2023-01-08T20:42:46.239Z,97738.23
2023-01-08T20:45:14.115Z,97738.68
2023-01-08T20:47:42.544Z,97741.19
2023-01-08T20:50:19.464Z,97741.56
2023-01-08T20:52:48.080Z,97739.83
2023-01-08T20:55:17.530Z,97735.17
2023-01-08T20:57:46.556Z,97739.89
2023-01-08T21:00:14.769Z,97739.91
2023-01-08T21:02:43.789Z,97732.77
2023-01-08T21:05:11.747Z,97732.61
2023-01-08T21:07:39.763Z,97730.52
2023-01-08T21:10:09.593Z,97735.71
2023-01-08T21:12:37.496Z,97735.60
2023-01-08T21:15:05.685Z,97736.50
2023-01-08T21:17:33.615Z,97733.80
2023-01-08T21:20:01.805Z,97735.98
2023-01-08T21:22:29.559Z,97737.95
2023-01-08T21:24:57.389Z,97733.34
2023-01-08T21:27:25.240Z,97737.38
2023-01-08T21:29:53.116Z,97739.89
2023-01-08T21:32:21.010Z,97734.89
2023-01-08T21:34:48.906Z,97730.58
2023-01-08T21:37:17.152Z,97729.38
2023-01-08T21:39:44.921Z,97726.01
2023-01-08T21:42:31.423Z,97722.04
2023-01-08T21:45:17.776Z,97726.66
2023-01-08T21:47:45.576Z,97725.88
2023-01-08T21:50:13.460Z,97719.56
2023-01-08T21:52:59.891Z,97713.10
2023-01-08T21:55:27.761Z,97717.51
2023-01-08T21:57:55.628Z,97709.74
2023-01-08T22:00:24.399Z,97707.23
2023-01-08T22:02:52.171Z,97709.30
2023-01-08T22:05:20.037Z,97707.05
2023-01-08T22:07:47.879Z,97702.55
2023-01-08T22:10:15.845Z,97700.37
2023-01-08T22:12:43.770Z,97700.77
2023-01-08T22:15:11.927Z,97702.55
2023-01-08T22:17:39.812Z,97697.21
2023-01-08T22:20:09.914Z,97696.71
2023-01-08T22:22:38.535Z,97689.56
2023-01-08T22:25:06.779Z,97685.91
2023-01-08T22:27:34.607Z,97686.74
2023-01-08T22:30:03.741Z,97683.34
2023-01-08T22:32:31.581Z,97676.16
2023-01-08T22:34:59.535Z,97672.45
2023-01-08T22:37:27.437Z,97671.14
2023-01-08T22:39:55.303Z,97666.76
2023-01-08T22:42:23.591Z,97666.91
2023-01-08T22:44:51.495Z,97664.56
2023-01-08T22:47:19.314Z,97658.30
2023-01-08T22:49:47.818Z,97651.30
2023-01-08T22:52:15.718Z,97645.83
2023-01-08T22:54:43.842Z,97643.79
2023-01-08T22:57:11.711Z,97640.30
2023-01-08T22:59:39.678Z,97635.41
2023-01-08T23:02:07.572Z,97640.31
2023-01-08T23:04:35.512Z,97637.62
2023-01-08T23:07:03.321Z,97632.60
2023-01-08T23:09:31.427Z,97629.05
2023-01-08T23:11:59.224Z,97622.41
2023-01-08T23:14:27.149Z,97623.70
2023-01-08T23:16:54.898Z,97621.41
2023-01-08T23:19:22.768Z,97620.44
2023-01-08T23:21:50.677Z,97608.83
2023-01-08T23:24:18.497Z,97606.42
2023-01-08T23:26:46.405Z,97608.64
2023-01-08T23:29:14.362Z,97604.20
2023-01-08T23:31:44.081Z,97600.30
2023-01-08T23:34:12.005Z,97593.36
2023-01-08T23:36:40.980Z,97588.09
2023-01-08T23:39:09.470Z,97592.61
2023-01-08T23:41:38.270Z,97578.86
2023-01-08T23:44:07.557Z,97579.34
2023-01-08T23:46:35.416Z,97580.34
2023-01-08T23:49:03.739Z,97576.55
2023-01-08T23:51:31.535Z,97573.42
2023-01-08T23:54:00.005Z,97570.42
2023-01-08T23:56:27.906Z,97568.83
2023-01-08T23:58:56.777Z,97565.05
